createdAt,value
2023-01-19T00:00:52.531Z,2.60
2023-01-19T00:03:19.404Z,2.45
2023-01-19T00:05:46.378Z,2.58
2023-01-19T00:08:16.765Z,2.47
2023-01-19T00:10:45.527Z,2.83
2023-01-19T00:13:12.692Z,2.58
2023-01-19T00:15:39.395Z,2.60
2023-01-19T00:18:06.226Z,2.40
2023-01-19T00:20:35.528Z,2.33
2023-01-19T00:23:04.735Z,2.95
2023-01-19T00:25:31.900Z,2.40
2023-01-19T00:28:01.362Z,2.92
2023-01-19T00:30:28.854Z,2.30
2023-01-19T00:32:56.031Z,2.38
2023-01-19T00:35:22.951Z,2.97
2023-01-19T00:37:49.832Z,2.30
2023-01-19T00:40:17.170Z,2.28
2023-01-19T00:42:44.617Z,2.10
2023-01-19T00:45:14.367Z,2.22
2023-01-19T00:47:41.725Z,2.50
2023-01-19T00:50:13.560Z,2.42
2023-01-19T00:52:41.098Z,2.95
2023-01-19T00:55:09.822Z,2.90
2023-01-19T00:57:36.897Z,2.45
2023-01-19T01:00:06.523Z,2.30
2023-01-19T01:05:09.871Z,2.00
2023-01-19T01:07:47.029Z,2.22
2023-01-19T01:10:25.571Z,2.13
2023-01-19T01:12:55.645Z,1.90
2023-01-19T01:15:26.560Z,2.67
2023-01-19T01:17:53.383Z,2.20
2023-01-19T01:20:23.126Z,2.05
2023-01-19T01:22:52.848Z,2.22
2023-01-19T01:25:24.989Z,2.35
2023-01-19T01:27:52.298Z,2.10
2023-01-19T01:30:19.666Z,2.30
2023-01-19T01:32:46.525Z,2.00
2023-01-19T01:35:14.295Z,2.97
2023-01-19T01:37:41.261Z,2.33
2023-01-19T01:40:09.083Z,2.65
2023-01-19T01:42:35.988Z,1.73
2023-01-19T01:45:07.796Z,4.82
2023-01-19T01:47:34.337Z,3.58
2023-01-19T01:50:22.730Z,2.33
2023-01-19T01:53:07.983Z,4.38
2023-01-19T01:55:47.015Z,4.10
2023-01-19T01:58:16.133Z,3.25
2023-01-19T02:01:01.655Z,2.42
2023-01-19T02:03:28.860Z,4.18
2023-01-19T02:05:59.654Z,2.33
2023-01-19T02:09:29.380Z,2.83
2023-01-19T02:12:15.889Z,2.42
2023-01-19T02:14:42.798Z,2.40
2023-01-19T02:17:09.444Z,2.15
2023-01-19T02:19:42.862Z,2.65
2023-01-19T02:22:41.314Z,2.60
2023-01-19T02:25:08.492Z,3.30
2023-01-19T02:27:37.063Z,4.95
2023-01-19T02:30:04.905Z,2.90
2023-01-19T02:32:31.591Z,4.15
2023-01-19T02:34:58.652Z,3.95
2023-01-19T02:37:28.397Z,2.42
2023-01-19T02:39:59.372Z,3.28
2023-01-19T02:42:35.168Z,3.60
2023-01-19T02:45:06.770Z,3.35
2023-01-19T02:47:43.540Z,3.28
2023-01-19T02:50:50.635Z,5.70
2023-01-19T02:53:47.979Z,3.03
2023-01-19T02:56:41.894Z,3.50
2023-01-19T02:59:19.089Z,2.58
2023-01-19T03:02:24.098Z,3.35
2023-01-19T03:05:20.308Z,2.65
2023-01-19T03:07:46.846Z,2.65
2023-01-19T03:10:39.727Z,3.38
2023-01-19T03:13:13.568Z,2.67
2023-01-19T03:15:40.188Z,2.55
2023-01-19T03:18:10.578Z,3.70
2023-01-19T03:20:40.251Z,5.93
2023-01-19T03:23:11.183Z,3.60
2023-01-19T03:25:42.992Z,2.53
2023-01-19T03:28:09.916Z,2.67
2023-01-19T03:30:42.435Z,2.78
2023-01-19T03:33:16.060Z,4.57
2023-01-19T03:35:49.077Z,6.88
2023-01-19T03:38:19.129Z,3.45
2023-01-19T03:40:47.539Z,5.15
2023-01-19T03:43:16.778Z,3.78
2023-01-19T03:45:44.480Z,4.88
2023-01-19T03:48:11.234Z,4.80
2023-01-19T03:50:38.165Z,5.90
2023-01-19T03:53:10.704Z,3.17
2023-01-19T03:55:40.408Z,6.63
2023-01-19T03:58:07.418Z,3.78
2023-01-19T04:00:36.717Z,5.47
2023-01-19T04:03:05.287Z,9.63
2023-01-19T04:05:33.610Z,5.22
2023-01-19T04:08:00.896Z,5.15
2023-01-19T04:10:27.476Z,6.30
2023-01-19T04:13:01.749Z,5.78
2023-01-19T04:15:29.860Z,6.38
2023-01-19T04:18:01.163Z,6.65
2023-01-19T04:20:28.517Z,8.93
2023-01-19T04:22:59.405Z,7.63
2023-01-19T04:25:26.664Z,5.70
2023-01-19T04:27:55.035Z,6.95
2023-01-19T04:30:22.757Z,4.53
2023-01-19T04:32:49.797Z,7.80
2023-01-19T04:35:17.078Z,4.00
2023-01-19T04:37:45.183Z,5.13
2023-01-19T04:40:12.215Z,4.35
2023-01-19T04:42:39.016Z,4.88
2023-01-19T04:45:06.131Z,6.75
2023-01-19T04:47:32.988Z,4.43
2023-01-19T04:49:59.639Z,6.22
2023-01-19T04:52:35.267Z,4.93
2023-01-19T04:55:03.517Z,5.40
2023-01-19T04:57:30.407Z,6.90
2023-01-19T04:59:57.962Z,7.78
2023-01-19T05:02:25.395Z,8.65
2023-01-19T05:04:52.199Z,6.38
2023-01-19T05:07:18.978Z,6.15
2023-01-19T05:09:45.761Z,7.28
2023-01-19T05:12:12.356Z,12.10
2023-01-19T05:14:39.239Z,8.75
2023-01-19T05:17:05.940Z,9.13
2023-01-19T05:19:32.736Z,10.93
2023-01-19T05:21:59.503Z,5.93
2023-01-19T05:24:26.347Z,10.00
2023-01-19T05:26:52.955Z,8.65
2023-01-19T05:29:19.679Z,9.90
2023-01-19T05:31:46.506Z,6.57
2023-01-19T05:34:14.602Z,9.48
2023-01-19T05:36:42.626Z,7.38
2023-01-19T05:39:09.491Z,6.60
2023-01-19T05:41:36.647Z,5.43
2023-01-19T05:44:03.506Z,8.30
2023-01-19T05:46:30.305Z,6.40
2023-01-19T05:48:57.069Z,6.97
2023-01-19T05:51:23.823Z,6.28
2023-01-19T05:53:50.445Z,8.80
2023-01-19T05:56:17.012Z,8.15
2023-01-19T05:58:44.007Z,8.80
2023-01-19T06:01:10.976Z,5.75
2023-01-19T06:03:39.300Z,5.75
2023-01-19T06:06:06.199Z,6.50
2023-01-19T06:08:33.017Z,5.38
2023-01-19T06:10:59.620Z,5.10
2023-01-19T06:13:26.809Z,6.57
2023-01-19T06:16:01.150Z,10.05
2023-01-19T06:18:29.164Z,11.88
2023-01-19T06:20:58.856Z,6.10
2023-01-19T06:23:31.053Z,6.53
2023-01-19T06:25:58.615Z,7.57
2023-01-19T06:28:25.468Z,7.38
2023-01-19T10:16:52.264Z,20.40
2023-01-19T10:19:36.872Z,13.32
2023-01-19T10:22:28.003Z,15.88
2023-01-19T10:25:01.765Z,17.17
2023-01-19T10:27:41.250Z,14.00
2023-01-19T10:30:15.355Z,17.85
2023-01-19T10:35:24.830Z,14.65
2023-01-19T10:38:02.953Z,18.90
2023-01-19T10:40:59.917Z,24.20
2023-01-19T10:43:43.971Z,18.63
2023-01-19T10:46:21.567Z,16.88
2023-01-19T10:48:57.112Z,17.70
2023-01-19T10:51:24.137Z,18.88
2023-01-19T10:54:20.084Z,15.43
2023-01-19T10:56:53.823Z,12.55
2023-01-19T10:59:38.087Z,14.40
2023-01-19T11:02:26.692Z,17.10
2023-01-19T11:05:03.141Z,16.02
2023-01-19T11:07:33.414Z,19.17
2023-01-19T11:10:22.152Z,20.25
2023-01-19T11:13:07.462Z,18.13
2023-01-19T11:16:04.005Z,16.90
2023-01-19T11:18:40.889Z,21.33
2023-01-19T11:21:23.596Z,13.80
2023-01-19T11:24:00.843Z,16.85
2023-01-19T11:26:39.971Z,21.20
2023-01-19T11:29:23.902Z,14.57
2023-01-19T11:31:52.620Z,18.70
2023-01-19T11:34:45.917Z,16.98
2023-01-19T11:37:25.951Z,17.42
2023-01-19T11:40:05.833Z,12.77
2023-01-19T11:42:41.067Z,20.35
2023-01-19T11:45:21.843Z,25.75
2023-01-19T11:48:03.459Z,21.63
2023-01-19T11:50:41.025Z,19.77
2023-01-19T11:53:31.044Z,18.58
2023-01-19T11:56:06.553Z,24.77
2023-01-19T11:58:54.113Z,14.63
2023-01-19T12:01:43.805Z,12.32
2023-01-19T12:04:30.563Z,15.02
2023-01-19T12:07:06.822Z,18.40
2023-01-19T12:09:57.931Z,16.48
2023-01-19T12:12:32.244Z,18.83
2023-01-19T12:15:31.989Z,21.55
2023-01-19T12:18:10.375Z,22.02
2023-01-19T12:20:46.033Z,18.88
2023-01-19T12:23:36.843Z,24.45
2023-01-19T12:26:29.992Z,17.25
2023-01-19T12:29:01.548Z,17.95
2023-01-19T12:31:28.738Z,14.93
2023-01-19T12:34:01.919Z,26.38
2023-01-19T12:36:44.888Z,25.30
2023-01-19T12:39:24.133Z,23.42
2023-01-19T12:42:07.857Z,21.80
2023-01-19T12:44:42.021Z,31.23
2023-01-19T12:49:57.173Z,18.80
2023-01-19T12:52:37.828Z,26.92
2023-01-19T12:55:13.431Z,23.58
2023-01-19T12:58:07.805Z,24.75
2023-01-19T13:00:50.052Z,21.42
2023-01-19T13:03:16.968Z,22.42
2023-01-19T13:05:49.775Z,7.45
2023-01-19T13:08:19.020Z,7.57
2023-01-19T13:11:09.800Z,10.55
2023-01-19T13:13:37.960Z,14.35
2023-01-19T13:16:33.741Z,9.48
2023-01-19T13:19:06.789Z,6.88
2023-01-19T13:21:51.809Z,7.68
2023-01-19T13:24:23.486Z,11.82
2023-01-19T13:26:50.288Z,11.02
2023-01-19T13:29:32.938Z,8.35
2023-01-19T13:32:11.839Z,8.10
2023-01-19T13:35:00.590Z,12.13
2023-01-19T13:37:52.841Z,9.23
2023-01-19T13:40:24.799Z,13.07
2023-01-19T13:43:00.742Z,9.52
2023-01-19T13:45:45.026Z,13.82
2023-01-19T13:48:17.649Z,10.45
2023-01-19T13:51:07.196Z,10.25
2023-01-19T13:53:34.545Z,11.25
2023-01-19T13:56:27.015Z,11.55
2023-01-19T13:59:02.263Z,12.27
2023-01-19T14:01:37.112Z,11.65
2023-01-19T14:04:04.599Z,9.85
2023-01-19T14:06:45.849Z,10.02
2023-01-19T14:09:20.347Z,8.13
2023-01-19T14:12:11.787Z,5.53
2023-01-19T14:14:55.732Z,6.80
2023-01-19T14:17:34.999Z,4.13
2023-01-19T14:20:08.732Z,3.50
2023-01-19T14:22:50.822Z,8.27
2023-01-19T14:25:45.665Z,4.63
2023-01-19T14:31:04.790Z,3.60
2023-01-19T14:33:36.769Z,3.15
2023-01-19T14:36:22.690Z,3.50
2023-01-19T14:39:04.974Z,4.25
2023-01-19T14:41:52.717Z,5.75
2023-01-19T14:44:29.750Z,5.97
2023-01-19T14:46:58.182Z,2.50
2023-01-19T14:49:33.730Z,3.28
2023-01-19T14:52:03.575Z,3.55
2023-01-19T14:54:42.880Z,5.20
2023-01-19T14:57:15.942Z,2.45
2023-01-19T14:59:48.565Z,2.60
2023-01-19T15:02:15.742Z,5.97
2023-01-19T15:04:42.459Z,1.80
2023-01-19T15:07:18.050Z,3.88
2023-01-19T15:09:46.324Z,5.45
2023-01-19T15:12:17.348Z,1.98
2023-01-19T15:14:45.376Z,3.20
2023-01-19T15:17:27.054Z,2.67
2023-01-19T15:19:57.783Z,2.60
2023-01-19T15:22:27.138Z,4.80
2023-01-19T15:24:57.652Z,3.05
2023-01-19T15:27:24.430Z,5.85
2023-01-19T15:29:51.521Z,5.43
2023-01-19T15:32:18.185Z,5.50
2023-01-19T15:34:44.909Z,4.38
2023-01-19T15:37:11.998Z,5.05
2023-01-19T15:39:40.071Z,3.15
2023-01-19T15:42:13.234Z,4.60
2023-01-19T15:44:40.073Z,7.00
2023-01-19T15:47:06.734Z,3.33
2023-01-19T15:49:33.465Z,5.00
2023-01-19T15:52:00.210Z,5.20
2023-01-19T15:54:26.893Z,3.20
2023-01-19T15:56:53.694Z,3.05
2023-01-19T15:59:20.397Z,2.17
2023-01-19T16:01:47.143Z,2.67
2023-01-19T16:04:14.763Z,2.25
2023-01-19T16:06:42.987Z,2.55
2023-01-19T16:09:11.670Z,2.42
2023-01-19T16:11:38.595Z,1.85
2023-01-19T16:14:05.333Z,1.40
2023-01-19T16:16:32.127Z,2.50
2023-01-19T16:18:59.134Z,1.92
2023-01-19T16:21:26.027Z,2.17
2023-01-19T16:23:52.958Z,3.58
2023-01-19T16:26:29.158Z,2.83
2023-01-19T16:28:57.597Z,2.85
2023-01-19T16:31:24.303Z,6.75
2023-01-19T16:33:51.134Z,2.72
2023-01-19T16:36:27.269Z,2.53
2023-01-19T16:38:55.309Z,2.38
2023-01-19T16:41:21.994Z,2.75
2023-01-19T16:43:53.102Z,1.95
2023-01-19T16:46:34.102Z,1.48
2023-01-19T16:49:06.078Z,1.88
2023-01-19T16:51:33.334Z,2.58
2023-01-19T16:54:00.225Z,1.73
2023-01-19T16:56:27.173Z,2.65
2023-01-19T16:58:55.937Z,3.08
2023-01-19T17:01:27.382Z,4.15
2023-01-19T17:03:55.028Z,3.83
2023-01-19T17:06:23.103Z,5.80
2023-01-19T17:08:51.129Z,2.60
2023-01-19T17:11:26.723Z,7.40
2023-01-19T17:13:55.791Z,5.80
2023-01-19T17:16:24.212Z,6.10
2023-01-19T17:18:51.181Z,3.60
2023-01-19T17:21:19.666Z,4.10
2023-01-19T17:23:48.081Z,5.15
2023-01-19T17:26:15.886Z,3.63
2023-01-19T17:28:43.153Z,2.75
2023-01-19T17:31:18.523Z,6.18
2023-01-19T17:33:48.341Z,4.00
2023-01-19T17:36:22.431Z,6.22
2023-01-19T17:38:50.446Z,3.67
2023-01-19T17:41:28.862Z,5.15
2023-01-19T17:43:56.736Z,2.20
2023-01-19T17:46:26.432Z,6.05
2023-01-19T17:49:02.353Z,8.98
2023-01-19T17:51:30.347Z,2.33
2023-01-19T17:53:57.918Z,3.00
2023-01-19T17:56:29.579Z,3.67
2023-01-19T17:58:57.766Z,3.80
2023-01-19T18:01:27.793Z,3.40
2023-01-19T18:03:55.168Z,3.15
2023-01-19T18:06:22.027Z,5.63
2023-01-19T18:08:49.620Z,4.55
2023-01-19T18:11:18.608Z,4.85
2023-01-19T18:13:48.250Z,3.58
2023-01-19T18:16:22.380Z,3.90
2023-01-19T18:21:20.296Z,6.07
2023-01-19T18:23:47.547Z,5.00
2023-01-19T18:26:17.104Z,5.18
2023-01-19T18:28:43.861Z,4.55
2023-01-19T18:31:13.070Z,3.60
2023-01-19T18:33:40.884Z,2.90
2023-01-19T18:36:08.517Z,4.72
2023-01-19T18:38:36.415Z,3.95
2023-01-19T18:41:04.785Z,4.60
2023-01-19T18:43:32.908Z,4.97
2023-01-19T18:46:00.177Z,2.97
2023-01-19T18:48:26.861Z,3.50
2023-01-19T18:50:53.854Z,2.90
2023-01-19T18:53:20.910Z,2.65
2023-01-19T18:55:52.168Z,3.35
2023-01-19T18:58:20.058Z,2.53
2023-01-19T19:00:47.246Z,5.32
2023-01-19T19:03:13.877Z,5.63
2023-01-19T19:05:40.859Z,7.03
2023-01-19T19:08:08.240Z,3.47
2023-01-19T19:10:35.073Z,6.13
2023-01-19T19:13:02.583Z,4.90
2023-01-19T19:15:29.530Z,3.47
2023-01-19T19:17:56.141Z,4.43
2023-01-19T19:20:23.487Z,7.78
2023-01-19T19:22:50.407Z,4.65
2023-01-19T19:25:17.584Z,4.78
2023-01-19T19:27:47.840Z,5.72
2023-01-19T19:30:15.071Z,4.60
2023-01-19T19:32:42.294Z,2.00
2023-01-19T19:35:09.513Z,2.35
2023-01-19T19:37:36.408Z,2.33
2023-01-19T19:40:03.902Z,2.00
2023-01-19T19:42:30.748Z,2.03
2023-01-19T19:44:57.498Z,1.98
2023-01-19T19:47:24.561Z,2.20
2023-01-19T19:49:51.293Z,2.88
2023-01-19T19:52:18.204Z,3.30
2023-01-19T19:54:45.250Z,2.40
2023-01-19T19:57:12.395Z,2.40
2023-01-19T19:59:39.475Z,1.50
2023-01-19T20:02:06.141Z,2.35
2023-01-19T20:04:33.262Z,1.70
2023-01-19T20:07:00.244Z,1.88
2023-01-19T20:09:26.931Z,2.55
2023-01-19T20:11:53.795Z,20.17
2023-01-19T20:14:22.642Z,8.20
2023-01-19T20:16:49.740Z,12.65
2023-01-19T20:19:17.913Z,13.98
2023-01-19T20:21:44.733Z,15.18
2023-01-19T20:24:18.583Z,11.65
2023-01-19T20:26:49.047Z,3.75
2023-01-19T20:29:16.124Z,2.40
2023-01-19T20:31:46.514Z,2.13
2023-01-19T20:34:17.424Z,1.85
2023-01-19T20:36:49.468Z,2.17
2023-01-19T20:39:19.676Z,2.55
2023-01-19T20:41:46.645Z,5.53
2023-01-19T20:44:16.166Z,7.22
2023-01-19T20:46:44.073Z,9.73
2023-01-19T20:49:10.834Z,11.40
2023-01-19T20:51:41.645Z,5.50
2023-01-19T20:54:08.950Z,3.17
2023-01-19T20:56:36.380Z,3.90
2023-01-19T20:59:03.142Z,2.00
2023-01-19T21:01:30.354Z,2.00
2023-01-19T21:03:57.128Z,1.98
2023-01-19T21:06:24.991Z,2.30
2023-01-19T21:08:52.390Z,1.98
2023-01-19T21:11:21.111Z,3.85
2023-01-19T21:13:49.133Z,2.10
2023-01-19T21:16:16.486Z,4.75
2023-01-19T21:18:43.575Z,3.80
2023-01-19T21:21:20.858Z,5.97
2023-01-19T21:23:51.866Z,5.40
2023-01-19T21:26:18.486Z,6.53
2023-01-19T21:28:45.325Z,7.15
2023-01-19T21:31:14.249Z,8.48
2023-01-19T21:33:42.739Z,11.45
2023-01-19T21:36:11.143Z,9.05
2023-01-19T21:38:38.784Z,12.15
2023-01-19T21:41:07.719Z,11.88
2023-01-19T21:43:36.954Z,14.57
2023-01-19T21:46:17.179Z,12.07
2023-01-19T21:48:43.972Z,11.50
2023-01-19T21:51:10.563Z,12.75
2023-01-19T21:53:37.495Z,11.90
2023-01-19T21:56:08.411Z,12.23
2023-01-19T21:58:35.767Z,11.50
2023-01-19T22:01:11.011Z,12.75
2023-01-19T22:03:38.007Z,14.32
2023-01-19T22:06:06.611Z,15.05
2023-01-19T22:08:34.175Z,13.13
2023-01-19T22:11:09.453Z,12.05
2023-01-19T22:13:38.743Z,9.90
2023-01-19T22:16:12.032Z,7.11
2023-01-19T22:18:40.821Z,5.13
2023-01-19T22:21:12.654Z,7.10
2023-01-19T22:23:40.043Z,4.28
2023-01-19T22:26:08.342Z,5.65
2023-01-19T22:28:35.611Z,6.72
2023-01-19T22:31:10.539Z,8.23
2023-01-19T22:33:37.348Z,9.98
2023-01-19T22:36:22.992Z,7.28
2023-01-19T22:38:55.209Z,9.30
2023-01-19T22:41:23.801Z,8.13
2023-01-19T22:43:53.056Z,5.38
2023-01-19T22:46:21.176Z,4.60
2023-01-19T22:48:49.448Z,4.72
2023-01-19T22:51:17.310Z,8.10
2023-01-19T22:53:44.109Z,3.85
2023-01-19T22:56:16.815Z,5.28
2023-01-19T22:58:44.813Z,4.32
2023-01-19T23:01:13.947Z,5.68
2023-01-19T23:03:41.516Z,4.72
2023-01-19T23:06:22.490Z,3.70
2023-01-19T23:08:49.593Z,3.55
2023-01-19T23:11:22.549Z,5.50
2023-01-19T23:13:50.068Z,6.47
2023-01-19T23:16:18.203Z,8.60
2023-01-19T23:18:46.005Z,6.63
2023-01-19T23:21:18.717Z,4.90
2023-01-19T23:23:46.168Z,6.45
2023-01-19T23:26:16.018Z,5.03
2023-01-19T23:28:43.907Z,6.32
2023-01-19T23:31:25.088Z,4.32
2023-01-19T23:33:59.879Z,6.50
2023-01-19T23:36:29.445Z,5.82
2023-01-19T23:39:01.287Z,3.25
2023-01-19T23:41:31.204Z,4.90
2023-01-19T23:43:58.254Z,4.18
2023-01-19T23:46:25.148Z,4.00
2023-01-19T23:48:52.194Z,4.47
2023-01-19T23:51:28.433Z,4.88
2023-01-19T23:53:56.149Z,7.20
2023-01-19T23:56:29.115Z,4.30
2023-01-19T23:58:58.653Z,5.00
